sensor_id;sensor_type;location;lat;lon;timestamp;temperature;humidity
23560;DHT22;11958;50.836;4.438;2022-09-03T00:00:21;20.00;46.60
23560;DHT22;11958;50.836;4.438;2022-09-03T00:03:01;20.10;45.80
23560;DHT22;11958;50.836;4.438;2022-09-03T00:05:40;20.00;45.90
23560;DHT22;11958;50.836;4.438;2022-09-03T00:08:16;20.20;45.40
23560;DHT22;11958;50.836;4.438;2022-09-03T00:10:54;20.30;45.70
23560;DHT22;11958;50.836;4.438;2022-09-03T00:13:32;20.50;45.80
23560;DHT22;11958;50.836;4.438;2022-09-03T00:15:59;20.50;45.30
23560;DHT22;11958;50.836;4.438;2022-09-03T00:18:31;20.30;45.20
23560;DHT22;11958;50.836;4.438;2022-09-03T00:21:04;20.50;44.80
23560;DHT22;11958;50.836;4.438;2022-09-03T00:23:35;20.50;44.20
23560;DHT22;11958;50.836;4.438;2022-09-03T00:31:35;20.40;45.40
23560;DHT22;11958;50.836;4.438;2022-09-03T00:34:16;20.60;43.80
23560;DHT22;11958;50.836;4.438;2022-09-03T00:36:45;20.70;44.10
23560;DHT22;11958;50.836;4.438;2022-09-03T00:39:20;20.10;45.50
23560;DHT22;11958;50.836;4.438;2022-09-03T00:42:24;19.90;45.50
23560;DHT22;11958;50.836;4.438;2022-09-03T00:45:20;19.90;46.40
23560;DHT22;11958;50.836;4.438;2022-09-03T00:47:51;20.00;46.20
23560;DHT22;11958;50.836;4.438;2022-09-03T00:50:24;20.10;46.40
23560;DHT22;11958;50.836;4.438;2022-09-03T00:55:56;20.40;45.60
23560;DHT22;11958;50.836;4.438;2022-09-03T01:04:24;20.10;47.00
23560;DHT22;11958;50.836;4.438;2022-09-03T01:13:06;20.10;47.10
23560;DHT22;11958;50.836;4.438;2022-09-03T01:15:35;20.00;47.80
23560;DHT22;11958;50.836;4.438;2022-09-03T01:18:21;20.10;47.40
23560;DHT22;11958;50.836;4.438;2022-09-03T01:21:01;20.30;46.80
23560;DHT22;11958;50.836;4.438;2022-09-03T01:24:02;20.60;46.40
23560;DHT22;11958;50.836;4.438;2022-09-03T01:26:53;20.80;46.00
23560;DHT22;11958;50.836;4.438;2022-09-03T01:29:27;20.70;45.70
23560;DHT22;11958;50.836;4.438;2022-09-03T01:32:13;20.30;45.70
23560;DHT22;11958;50.836;4.438;2022-09-03T01:43:35;19.70;47.90
23560;DHT22;11958;50.836;4.438;2022-09-03T01:46:23;19.70;47.20
23560;DHT22;11958;50.836;4.438;2022-09-03T01:51:40;20.40;44.40
23560;DHT22;11958;50.836;4.438;2022-09-03T01:54:44;20.50;44.40
23560;DHT22;11958;50.836;4.438;2022-09-03T02:02:31;20.40;45.00
23560;DHT22;11958;50.836;4.438;2022-09-03T02:04:59;20.80;44.40
23560;DHT22;11958;50.836;4.438;2022-09-03T02:07:32;20.90;43.50
23560;DHT22;11958;50.836;4.438;2022-09-03T02:10:00;20.50;44.70
23560;DHT22;11958;50.836;4.438;2022-09-03T02:12:28;20.50;45.70
23560;DHT22;11958;50.836;4.438;2022-09-03T02:15:01;20.50;45.90
23560;DHT22;11958;50.836;4.438;2022-09-03T02:17:31;20.40;45.40
23560;DHT22;11958;50.836;4.438;2022-09-03T02:19:58;20.00;46.50
23560;DHT22;11958;50.836;4.438;2022-09-03T02:22:26;19.80;47.50
23560;DHT22;11958;50.836;4.438;2022-09-03T02:24:52;19.70;48.00
23560;DHT22;11958;50.836;4.438;2022-09-03T02:27:18;20.00;47.20
23560;DHT22;11958;50.836;4.438;2022-09-03T02:29:44;20.30;46.50
23560;DHT22;11958;50.836;4.438;2022-09-03T02:32:11;20.50;46.20
23560;DHT22;11958;50.836;4.438;2022-09-03T02:34:40;20.60;45.90
23560;DHT22;11958;50.836;4.438;2022-09-03T02:37:16;20.50;45.50
23560;DHT22;11958;50.836;4.438;2022-09-03T02:39:44;20.60;46.30
23560;DHT22;11958;50.836;4.438;2022-09-03T02:42:11;20.70;46.40
23560;DHT22;11958;50.836;4.438;2022-09-03T02:44:43;20.40;46.50
23560;DHT22;11958;50.836;4.438;2022-09-03T02:47:11;20.40;46.80
23560;DHT22;11958;50.836;4.438;2022-09-03T02:49:36;20.40;47.00
23560;DHT22;11958;50.836;4.438;2022-09-03T02:52:05;20.00;47.60
23560;DHT22;11958;50.836;4.438;2022-09-03T02:54:34;19.90;48.50
23560;DHT22;11958;50.836;4.438;2022-09-03T02:57:14;20.20;47.70
23560;DHT22;11958;50.836;4.438;2022-09-03T02:59:40;20.00;47.90
23560;DHT22;11958;50.836;4.438;2022-09-03T03:02:09;20.00;48.50
23560;DHT22;11958;50.836;4.438;2022-09-03T03:04:34;20.30;47.80
23560;DHT22;11958;50.836;4.438;2022-09-03T03:07:00;20.50;47.20
23560;DHT22;11958;50.836;4.438;2022-09-03T03:09:26;20.70;47.20
23560;DHT22;11958;50.836;4.438;2022-09-03T03:11:52;20.60;47.60
23560;DHT22;11958;50.836;4.438;2022-09-03T03:14:19;20.20;48.50
23560;DHT22;11958;50.836;4.438;2022-09-03T03:16:45;19.90;49.90
23560;DHT22;11958;50.836;4.438;2022-09-03T03:19:10;20.00;49.60
23560;DHT22;11958;50.836;4.438;2022-09-03T03:21:36;20.20;49.70
23560;DHT22;11958;50.836;4.438;2022-09-03T03:24:02;20.30;49.80
23560;DHT22;11958;50.836;4.438;2022-09-03T03:26:28;20.00;50.10
23560;DHT22;11958;50.836;4.438;2022-09-03T03:28:58;19.90;51.00
23560;DHT22;11958;50.836;4.438;2022-09-03T03:31:25;20.00;51.00
23560;DHT22;11958;50.836;4.438;2022-09-03T03:33:56;20.10;51.00
23560;DHT22;11958;50.836;4.438;2022-09-03T03:36:24;20.10;51.30
23560;DHT22;11958;50.836;4.438;2022-09-03T03:38:53;20.20;51.30
23560;DHT22;11958;50.836;4.438;2022-09-03T03:41:27;20.20;50.90
23560;DHT22;11958;50.836;4.438;2022-09-03T03:43:57;20.30;51.60
23560;DHT22;11958;50.836;4.438;2022-09-03T03:46:24;20.30;51.40
23560;DHT22;11958;50.836;4.438;2022-09-03T03:48:52;19.80;52.90
23560;DHT22;11958;50.836;4.438;2022-09-03T03:51:18;19.90;53.20
23560;DHT22;11958;50.836;4.438;2022-09-03T03:53:44;19.90;53.60
23560;DHT22;11958;50.836;4.438;2022-09-03T03:56:12;19.80;55.40
23560;DHT22;11958;50.836;4.438;2022-09-03T03:58:39;20.00;56.60
23560;DHT22;11958;50.836;4.438;2022-09-03T04:01:13;20.30;54.90
23560;DHT22;11958;50.836;4.438;2022-09-03T04:03:40;20.10;57.40
23560;DHT22;11958;50.836;4.438;2022-09-03T04:06:06;19.70;58.40
23560;DHT22;11958;50.836;4.438;2022-09-03T04:08:38;19.30;62.30
23560;DHT22;11958;50.836;4.438;2022-09-03T04:11:06;19.40;64.00
23560;DHT22;11958;50.836;4.438;2022-09-03T04:13:37;19.30;64.50
23560;DHT22;11958;50.836;4.438;2022-09-03T04:16:05;19.80;64.40
23560;DHT22;11958;50.836;4.438;2022-09-03T04:18:31;19.60;66.00
23560;DHT22;11958;50.836;4.438;2022-09-03T04:20:59;19.60;67.90
23560;DHT22;11958;50.836;4.438;2022-09-03T04:23:29;19.10;69.70
23560;DHT22;11958;50.836;4.438;2022-09-03T04:25:54;19.00;70.80
23560;DHT22;11958;50.836;4.438;2022-09-03T04:28:20;18.90;72.70
23560;DHT22;11958;50.836;4.438;2022-09-03T04:30:47;18.80;73.00
23560;DHT22;11958;50.836;4.438;2022-09-03T04:33:12;18.70;74.80
23560;DHT22;11958;50.836;4.438;2022-09-03T04:35:38;18.80;72.90
23560;DHT22;11958;50.836;4.438;2022-09-03T04:38:05;18.60;74.70
23560;DHT22;11958;50.836;4.438;2022-09-03T04:40:32;18.80;74.60
23560;DHT22;11958;50.836;4.438;2022-09-03T04:42:58;18.90;74.40
23560;DHT22;11958;50.836;4.438;2022-09-03T04:45:25;19.20;73.70
23560;DHT22;11958;50.836;4.438;2022-09-03T04:48:01;19.00;75.00
23560;DHT22;11958;50.836;4.438;2022-09-03T04:50:28;18.80;75.10
23560;DHT22;11958;50.836;4.438;2022-09-03T04:52:58;18.90;75.50
23560;DHT22;11958;50.836;4.438;2022-09-03T04:55:24;19.40;74.80
23560;DHT22;11958;50.836;4.438;2022-09-03T04:57:50;18.90;75.20
23560;DHT22;11958;50.836;4.438;2022-09-03T05:00:16;18.60;75.70
23560;DHT22;11958;50.836;4.438;2022-09-03T05:02:46;18.40;76.70
23560;DHT22;11958;50.836;4.438;2022-09-03T05:05:13;18.70;76.50
23560;DHT22;11958;50.836;4.438;2022-09-03T05:07:39;18.30;77.20
23560;DHT22;11958;50.836;4.438;2022-09-03T05:10:07;18.30;78.00
23560;DHT22;11958;50.836;4.438;2022-09-03T05:12:33;18.60;77.10
23560;DHT22;11958;50.836;4.438;2022-09-03T05:14:58;18.90;75.80
23560;DHT22;11958;50.836;4.438;2022-09-03T05:17:28;19.00;75.70
23560;DHT22;11958;50.836;4.438;2022-09-03T05:19:53;19.00;76.20
23560;DHT22;11958;50.836;4.438;2022-09-03T05:22:19;18.60;77.00
23560;DHT22;11958;50.836;4.438;2022-09-03T05:24:48;18.60;78.10
23560;DHT22;11958;50.836;4.438;2022-09-03T05:27:15;18.50;78.80
23560;DHT22;11958;50.836;4.438;2022-09-03T05:29:43;18.40;78.50
23560;DHT22;11958;50.836;4.438;2022-09-03T05:32:10;18.40;78.60
23560;DHT22;11958;50.836;4.438;2022-09-03T05:34:38;18.70;78.20
23560;DHT22;11958;50.836;4.438;2022-09-03T05:37:03;18.80;77.20
23560;DHT22;11958;50.836;4.438;2022-09-03T05:39:29;19.10;76.60
23560;DHT22;11958;50.836;4.438;2022-09-03T05:41:55;19.00;75.70
23560;DHT22;11958;50.836;4.438;2022-09-03T05:44:20;18.90;76.60
23560;DHT22;11958;50.836;4.438;2022-09-03T05:46:48;18.70;77.20
23560;DHT22;11958;50.836;4.438;2022-09-03T05:49:14;18.80;78.10
23560;DHT22;11958;50.836;4.438;2022-09-03T05:51:40;18.80;77.50
23560;DHT22;11958;50.836;4.438;2022-09-03T05:54:07;18.60;78.60
23560;DHT22;11958;50.836;4.438;2022-09-03T05:56:33;18.60;78.40
23560;DHT22;11958;50.836;4.438;2022-09-03T05:59:02;18.90;77.50
23560;DHT22;11958;50.836;4.438;2022-09-03T06:01:33;18.70;78.10
23560;DHT22;11958;50.836;4.438;2022-09-03T06:04:09;19.10;77.40
23560;DHT22;11958;50.836;4.438;2022-09-03T06:06:36;18.80;77.90
23560;DHT22;11958;50.836;4.438;2022-09-03T06:09:05;18.90;78.10
23560;DHT22;11958;50.836;4.438;2022-09-03T06:11:33;18.90;77.90
23560;DHT22;11958;50.836;4.438;2022-09-03T06:14:01;18.70;78.80
23560;DHT22;11958;50.836;4.438;2022-09-03T06:16:31;18.90;78.40
23560;DHT22;11958;50.836;4.438;2022-09-03T06:18:57;19.00;77.80
23560;DHT22;11958;50.836;4.438;2022-09-03T06:21:23;18.80;78.70
23560;DHT22;11958;50.836;4.438;2022-09-03T06:23:54;18.90;79.20
23560;DHT22;11958;50.836;4.438;2022-09-03T06:26:24;19.00;78.90
23560;DHT22;11958;50.836;4.438;2022-09-03T06:28:50;18.90;78.80
23560;DHT22;11958;50.836;4.438;2022-09-03T06:31:19;18.90;79.30
23560;DHT22;11958;50.836;4.438;2022-09-03T06:33:46;18.80;79.20
23560;DHT22;11958;50.836;4.438;2022-09-03T06:36:17;18.80;79.60
23560;DHT22;11958;50.836;4.438;2022-09-03T06:38:44;18.90;80.00
23560;DHT22;11958;50.836;4.438;2022-09-03T06:43:38;19.00;77.80
23560;DHT22;11958;50.836;4.438;2022-09-03T06:46:10;19.40;76.30
23560;DHT22;11958;50.836;4.438;2022-09-03T06:48:36;19.40;75.40
23560;DHT22;11958;50.836;4.438;2022-09-03T06:51:08;19.50;74.80
23560;DHT22;11958;50.836;4.438;2022-09-03T06:53:36;19.30;75.20
23560;DHT22;11958;50.836;4.438;2022-09-03T06:56:05;19.40;75.70
23560;DHT22;11958;50.836;4.438;2022-09-03T06:58:33;19.50;76.00
23560;DHT22;11958;50.836;4.438;2022-09-03T07:01:13;19.80;75.30
23560;DHT22;11958;50.836;4.438;2022-09-03T07:03:40;19.80;75.00
23560;DHT22;11958;50.836;4.438;2022-09-03T07:06:12;19.80;75.00
23560;DHT22;11958;50.836;4.438;2022-09-03T07:08:38;19.90;75.50
23560;DHT22;11958;50.836;4.438;2022-09-03T07:11:06;19.70;76.00
23560;DHT22;11958;50.836;4.438;2022-09-03T07:13:36;19.60;76.40
23560;DHT22;11958;50.836;4.438;2022-09-03T07:16:04;19.60;76.30
23560;DHT22;11958;50.836;4.438;2022-09-03T07:18:31;19.70;76.00
23560;DHT22;11958;50.836;4.438;2022-09-03T07:21:02;19.80;76.00
23560;DHT22;11958;50.836;4.438;2022-09-03T07:23:29;20.20;75.80
23560;DHT22;11958;50.836;4.438;2022-09-03T07:25:59;20.30;74.40
23560;DHT22;11958;50.836;4.438;2022-09-03T07:28:26;20.50;73.90
23560;DHT22;11958;50.836;4.438;2022-09-03T07:30:53;20.30;73.50
23560;DHT22;11958;50.836;4.438;2022-09-03T07:33:19;20.40;73.70
23560;DHT22;11958;50.836;4.438;2022-09-03T07:35:46;20.60;71.80
23560;DHT22;11958;50.836;4.438;2022-09-03T07:38:16;20.70;72.40
23560;DHT22;11958;50.836;4.438;2022-09-03T07:40:44;20.40;72.60
23560;DHT22;11958;50.836;4.438;2022-09-03T07:43:09;20.60;73.10
23560;DHT22;11958;50.836;4.438;2022-09-03T07:45:35;20.60;73.70
23560;DHT22;11958;50.836;4.438;2022-09-03T07:48:03;20.60;74.00
23560;DHT22;11958;50.836;4.438;2022-09-03T07:50:29;20.60;74.00
23560;DHT22;11958;50.836;4.438;2022-09-03T07:52:58;20.50;75.20
23560;DHT22;11958;50.836;4.438;2022-09-03T07:55:24;20.70;75.00
23560;DHT22;11958;50.836;4.438;2022-09-03T07:57:56;20.70;75.30
23560;DHT22;11958;50.836;4.438;2022-09-03T08:00:24;21.00;72.70
23560;DHT22;11958;50.836;4.438;2022-09-03T08:02:53;21.10;71.40
23560;DHT22;11958;50.836;4.438;2022-09-03T08:05:19;21.20;70.20
23560;DHT22;11958;50.836;4.438;2022-09-03T08:07:46;21.30;69.60
23560;DHT22;11958;50.836;4.438;2022-09-03T08:10:13;21.40;68.40
23560;DHT22;11958;50.836;4.438;2022-09-03T08:12:39;21.60;68.60
23560;DHT22;11958;50.836;4.438;2022-09-03T08:15:05;21.70;68.60
23560;DHT22;11958;50.836;4.438;2022-09-03T08:17:31;21.80;67.30
23560;DHT22;11958;50.836;4.438;2022-09-03T08:19:58;21.80;67.20
23560;DHT22;11958;50.836;4.438;2022-09-03T08:22:24;21.90;68.10
23560;DHT22;11958;50.836;4.438;2022-09-03T08:24:50;21.90;69.30
23560;DHT22;11958;50.836;4.438;2022-09-03T08:27:20;22.10;65.00
23560;DHT22;11958;50.836;4.438;2022-09-03T08:29:50;22.20;61.60
23560;DHT22;11958;50.836;4.438;2022-09-03T08:32:16;22.40;60.50
23560;DHT22;11958;50.836;4.438;2022-09-03T08:34:41;22.50;64.40
23560;DHT22;11958;50.836;4.438;2022-09-03T08:37:07;22.60;59.60
23560;DHT22;11958;50.836;4.438;2022-09-03T08:39:36;22.80;61.60
23560;DHT22;11958;50.836;4.438;2022-09-03T08:42:18;22.90;60.00
23560;DHT22;11958;50.836;4.438;2022-09-03T08:44:49;22.70;58.50
23560;DHT22;11958;50.836;4.438;2022-09-03T08:55:25;22.80;59.00
23560;DHT22;11958;50.836;4.438;2022-09-03T08:58:05;22.90;59.70
23560;DHT22;11958;50.836;4.438;2022-09-03T09:06:28;23.00;55.80
23560;DHT22;11958;50.836;4.438;2022-09-03T09:11:59;23.50;57.40
23560;DHT22;11958;50.836;4.438;2022-09-03T09:22:19;24.10;53.40
23560;DHT22;11958;50.836;4.438;2022-09-03T09:24:49;24.20;52.00
23560;DHT22;11958;50.836;4.438;2022-09-03T09:27:18;24.20;52.40
23560;DHT22;11958;50.836;4.438;2022-09-03T09:29:48;24.40;53.60
23560;DHT22;11958;50.836;4.438;2022-09-03T09:32:16;24.10;52.70
23560;DHT22;11958;50.836;4.438;2022-09-03T09:34:43;24.20;51.60
23560;DHT22;11958;50.836;4.438;2022-09-03T09:37:12;24.10;52.50
23560;DHT22;11958;50.836;4.438;2022-09-03T09:39:38;24.20;52.40
23560;DHT22;11958;50.836;4.438;2022-09-03T09:42:06;24.20;52.40
23560;DHT22;11958;50.836;4.438;2022-09-03T09:44:38;24.10;53.20
23560;DHT22;11958;50.836;4.438;2022-09-03T09:47:27;24.20;51.50
23560;DHT22;11958;50.836;4.438;2022-09-03T09:49:59;24.00;52.50
23560;DHT22;11958;50.836;4.438;2022-09-03T09:52:26;23.80;54.00
23560;DHT22;11958;50.836;4.438;2022-09-03T09:55:06;23.50;56.00
23560;DHT22;11958;50.836;4.438;2022-09-03T09:57:33;23.60;53.40
23560;DHT22;11958;50.836;4.438;2022-09-03T10:00:09;23.90;52.80
23560;DHT22;11958;50.836;4.438;2022-09-03T10:02:37;23.90;52.70
23560;DHT22;11958;50.836;4.438;2022-09-03T10:07:57;23.80;54.20
23560;DHT22;11958;50.836;4.438;2022-09-03T10:10:24;23.90;53.00
23560;DHT22;11958;50.836;4.438;2022-09-03T10:12:56;24.20;52.80
23560;DHT22;11958;50.836;4.438;2022-09-03T10:15:46;24.30;52.20
23560;DHT22;11958;50.836;4.438;2022-09-03T10:26:17;24.60;50.90
23560;DHT22;11958;50.836;4.438;2022-09-03T10:28:45;24.80;51.20
23560;DHT22;11958;50.836;4.438;2022-09-03T10:34:10;24.80;49.90
23560;DHT22;11958;50.836;4.438;2022-09-03T10:39:23;24.90;50.10
23560;DHT22;11958;50.836;4.438;2022-09-03T10:50:21;25.80;49.00
23560;DHT22;11958;50.836;4.438;2022-09-03T10:53:11;26.20;48.40
23560;DHT22;11958;50.836;4.438;2022-09-03T10:55:46;26.40;46.40
23560;DHT22;11958;50.836;4.438;2022-09-03T11:06:29;26.40;47.10
23560;DHT22;11958;50.836;4.438;2022-09-03T11:09:17;26.20;47.60
23560;DHT22;11958;50.836;4.438;2022-09-03T11:11:52;26.50;45.70
23560;DHT22;11958;50.836;4.438;2022-09-03T11:14:41;26.70;46.80
23560;DHT22;11958;50.836;4.438;2022-09-03T11:17:15;26.80;44.40
23560;DHT22;11958;50.836;4.438;2022-09-03T11:19:54;27.10;45.10
23560;DHT22;11958;50.836;4.438;2022-09-03T11:22:21;26.90;43.70
23560;DHT22;11958;50.836;4.438;2022-09-03T11:24:56;26.90;43.70
23560;DHT22;11958;50.836;4.438;2022-09-03T11:30:21;26.70;44.10
23560;DHT22;11958;50.836;4.438;2022-09-03T11:32:51;27.00;43.10
23560;DHT22;11958;50.836;4.438;2022-09-03T11:35:45;26.90;44.40
23560;DHT22;11958;50.836;4.438;2022-09-03T11:43:32;25.90;46.90
23560;DHT22;11958;50.836;4.438;2022-09-03T11:48:38;25.90;47.30
23560;DHT22;11958;50.836;4.438;2022-09-03T11:51:14;25.90;48.80
23560;DHT22;11958;50.836;4.438;2022-09-03T11:53:41;26.20;47.70
23560;DHT22;11958;50.836;4.438;2022-09-03T11:58:40;26.40;46.00
23560;DHT22;11958;50.836;4.438;2022-09-03T12:01:17;26.50;44.80
23560;DHT22;11958;50.836;4.438;2022-09-03T12:03:56;26.80;45.20
23560;DHT22;11958;50.836;4.438;2022-09-03T12:06:37;27.20;42.90
23560;DHT22;11958;50.836;4.438;2022-09-03T12:09:28;27.30;42.60
23560;DHT22;11958;50.836;4.438;2022-09-03T12:20:35;28.60;39.90
23560;DHT22;11958;50.836;4.438;2022-09-03T12:23:01;29.00;39.20
23560;DHT22;11958;50.836;4.438;2022-09-03T12:25:28;28.90;38.70
23560;DHT22;11958;50.836;4.438;2022-09-03T12:27:54;29.20;39.10
23560;DHT22;11958;50.836;4.438;2022-09-03T12:30:23;29.90;35.30
23560;DHT22;11958;50.836;4.438;2022-09-03T12:32:49;30.70;34.20
23560;DHT22;11958;50.836;4.438;2022-09-03T12:35:19;31.10;33.40
23560;DHT22;11958;50.836;4.438;2022-09-03T12:37:46;31.50;32.70
23560;DHT22;11958;50.836;4.438;2022-09-03T12:40:23;32.40;31.00
23560;DHT22;11958;50.836;4.438;2022-09-03T12:42:51;32.10;30.80
23560;DHT22;11958;50.836;4.438;2022-09-03T12:45:24;30.40;33.40
23560;DHT22;11958;50.836;4.438;2022-09-03T12:47:51;30.40;33.90
23560;DHT22;11958;50.836;4.438;2022-09-03T12:50:22;29.40;35.10
23560;DHT22;11958;50.836;4.438;2022-09-03T12:52:54;28.90;36.50
23560;DHT22;11958;50.836;4.438;2022-09-03T12:58:07;30.20;34.10
23560;DHT22;11958;50.836;4.438;2022-09-03T13:00:40;30.40;33.70
23560;DHT22;11958;50.836;4.438;2022-09-03T13:06:28;32.20;31.10
23560;DHT22;11958;50.836;4.438;2022-09-03T13:09:02;32.60;30.60
23560;DHT22;11958;50.836;4.438;2022-09-03T13:11:33;32.40;30.80
23560;DHT22;11958;50.836;4.438;2022-09-03T13:22:10;30.80;32.90
23560;DHT22;11958;50.836;4.438;2022-09-03T13:30:30;33.00;28.90
23560;DHT22;11958;50.836;4.438;2022-09-03T13:35:53;33.60;29.10
23560;DHT22;11958;50.836;4.438;2022-09-03T13:38:45;33.00;28.00
23560;DHT22;11958;50.836;4.438;2022-09-03T13:41:40;32.10;28.80
23560;DHT22;11958;50.836;4.438;2022-09-03T13:46:53;32.60;30.20
23560;DHT22;11958;50.836;4.438;2022-09-03T13:55:21;36.50;22.30
23560;DHT22;11958;50.836;4.438;2022-09-03T14:08:52;37.60;21.00
23560;DHT22;11958;50.836;4.438;2022-09-03T14:11:31;35.90;22.90
23560;DHT22;11958;50.836;4.438;2022-09-03T14:14:09;34.30;24.80
23560;DHT22;11958;50.836;4.438;2022-09-03T14:22:13;31.70;29.70
23560;DHT22;11958;50.836;4.438;2022-09-03T14:24:53;31.00;29.90
23560;DHT22;11958;50.836;4.438;2022-09-03T14:27:28;30.30;30.40
23560;DHT22;11958;50.836;4.438;2022-09-03T14:29:59;29.30;31.70
23560;DHT22;11958;50.836;4.438;2022-09-03T14:32:29;29.00;34.40
23560;DHT22;11958;50.836;4.438;2022-09-03T15:00:20;28.20;40.50
23560;DHT22;11958;50.836;4.438;2022-09-03T15:03:18;28.20;41.60
23560;DHT22;11958;50.836;4.438;2022-09-03T15:06:09;28.10;39.90
23560;DHT22;11958;50.836;4.438;2022-09-03T15:08:57;27.50;42.00
23560;DHT22;11958;50.836;4.438;2022-09-03T15:11:29;27.00;43.40
23560;DHT22;11958;50.836;4.438;2022-09-03T15:14:17;26.70;44.40
23560;DHT22;11958;50.836;4.438;2022-09-03T15:16:57;26.50;45.60
23560;DHT22;11958;50.836;4.438;2022-09-03T15:19:35;26.50;45.70
23560;DHT22;11958;50.836;4.438;2022-09-03T15:28:00;26.40;46.90
23560;DHT22;11958;50.836;4.438;2022-09-03T15:30:50;26.10;48.10
23560;DHT22;11958;50.836;4.438;2022-09-03T15:33:34;26.00;47.80
23560;DHT22;11958;50.836;4.438;2022-09-03T15:36:10;26.10;47.20
23560;DHT22;11958;50.836;4.438;2022-09-03T15:38:58;26.20;46.90
23560;DHT22;11958;50.836;4.438;2022-09-03T15:41:55;26.10;47.20
23560;DHT22;11958;50.836;4.438;2022-09-03T15:44:23;26.10;46.70
23560;DHT22;11958;50.836;4.438;2022-09-03T15:46:56;26.10;47.40
23560;DHT22;11958;50.836;4.438;2022-09-03T15:49:28;26.00;48.10
23560;DHT22;11958;50.836;4.438;2022-09-03T15:52:30;26.00;47.10
23560;DHT22;11958;50.836;4.438;2022-09-03T15:55:25;26.00;47.00
23560;DHT22;11958;50.836;4.438;2022-09-03T16:01:06;25.70;48.80
23560;DHT22;11958;50.836;4.438;2022-09-03T16:12:06;25.40;53.00
23560;DHT22;11958;50.836;4.438;2022-09-03T16:14:39;25.20;52.90
23560;DHT22;11958;50.836;4.438;2022-09-03T16:17:20;25.10;53.70
23560;DHT22;11958;50.836;4.438;2022-09-03T16:22:28;25.00;52.80
23560;DHT22;11958;50.836;4.438;2022-09-03T16:25:15;25.20;53.60
23560;DHT22;11958;50.836;4.438;2022-09-03T16:27:54;25.40;53.40
23560;DHT22;11958;50.836;4.438;2022-09-03T16:36:12;25.90;51.20
23560;DHT22;11958;50.836;4.438;2022-09-03T16:41:41;26.10;50.90
23560;DHT22;11958;50.836;4.438;2022-09-03T16:44:25;26.00;51.20
23560;DHT22;11958;50.836;4.438;2022-09-03T16:49:35;26.00;50.30
23560;DHT22;11958;50.836;4.438;2022-09-03T16:54:57;25.60;51.30
23560;DHT22;11958;50.836;4.438;2022-09-03T17:00:14;25.40;51.40
23560;DHT22;11958;50.836;4.438;2022-09-03T17:06:04;25.60;50.80
23560;DHT22;11958;50.836;4.438;2022-09-03T17:17:16;24.90;53.60
23560;DHT22;11958;50.836;4.438;2022-09-03T17:19:45;24.70;54.20
23560;DHT22;11958;50.836;4.438;2022-09-03T17:25:50;24.30;56.30
23560;DHT22;11958;50.836;4.438;2022-09-03T17:31:19;24.20;56.80
23560;DHT22;11958;50.836;4.438;2022-09-03T17:33:56;24.20;56.50
23560;DHT22;11958;50.836;4.438;2022-09-03T17:36:26;24.30;55.90
23560;DHT22;11958;50.836;4.438;2022-09-03T17:42:37;24.10;56.90
23560;DHT22;11958;50.836;4.438;2022-09-03T17:45:18;23.90;57.30
23560;DHT22;11958;50.836;4.438;2022-09-03T17:53:36;23.80;57.70
23560;DHT22;11958;50.836;4.438;2022-09-03T17:56:10;23.70;58.40
23560;DHT22;11958;50.836;4.438;2022-09-03T17:58:44;23.70;57.10
23560;DHT22;11958;50.836;4.438;2022-09-03T18:01:20;24.00;57.90
23560;DHT22;11958;50.836;4.438;2022-09-03T18:04:17;24.10;56.90
23560;DHT22;11958;50.836;4.438;2022-09-03T18:09:51;23.50;58.80
23560;DHT22;11958;50.836;4.438;2022-09-03T18:12:31;23.40;58.80
23560;DHT22;11958;50.836;4.438;2022-09-03T18:17:43;23.10;59.20
23560;DHT22;11958;50.836;4.438;2022-09-03T18:20:13;23.30;58.90
23560;DHT22;11958;50.836;4.438;2022-09-03T18:23:18;23.20;58.40
23560;DHT22;11958;50.836;4.438;2022-09-03T18:26:12;23.10;58.60
23560;DHT22;11958;50.836;4.438;2022-09-03T18:29:02;23.20;58.80
23560;DHT22;11958;50.836;4.438;2022-09-03T18:31:48;22.90;58.80
23560;DHT22;11958;50.836;4.438;2022-09-03T18:34:33;23.00;58.90
23560;DHT22;11958;50.836;4.438;2022-09-03T18:37:24;22.70;60.10
23560;DHT22;11958;50.836;4.438;2022-09-03T18:40:16;22.60;59.80
23560;DHT22;11958;50.836;4.438;2022-09-03T18:46:09;22.50;58.60
23560;DHT22;11958;50.836;4.438;2022-09-03T18:49:13;22.60;60.00
23560;DHT22;11958;50.836;4.438;2022-09-03T18:52:31;22.80;60.10
23560;DHT22;11958;50.836;4.438;2022-09-03T18:58:39;22.50;59.20
23560;DHT22;11958;50.836;4.438;2022-09-03T19:01:37;22.60;59.70
23560;DHT22;11958;50.836;4.438;2022-09-03T19:07:45;22.50;59.10
23560;DHT22;11958;50.836;4.438;2022-09-03T19:13:42;22.60;59.30
23560;DHT22;11958;50.836;4.438;2022-09-03T19:16:53;22.50;59.40
23560;DHT22;11958;50.836;4.438;2022-09-03T19:22:37;22.40;59.10
23560;DHT22;11958;50.836;4.438;2022-09-03T19:25:23;22.40;59.10
23560;DHT22;11958;50.836;4.438;2022-09-03T19:28:20;22.30;59.70
23560;DHT22;11958;50.836;4.438;2022-09-03T19:34:33;22.80;58.40
23560;DHT22;11958;50.836;4.438;2022-09-03T19:37:25;22.50;59.40
23560;DHT22;11958;50.836;4.438;2022-09-03T19:43:31;22.70;59.10
23560;DHT22;11958;50.836;4.438;2022-09-03T19:46:39;22.50;59.70
23560;DHT22;11958;50.836;4.438;2022-09-03T19:49:50;22.30;60.10
23560;DHT22;11958;50.836;4.438;2022-09-03T19:55:39;22.20;61.10
23560;DHT22;11958;50.836;4.438;2022-09-03T19:58:28;21.80;62.40
23560;DHT22;11958;50.836;4.438;2022-09-03T20:01:13;21.80;62.30
23560;DHT22;11958;50.836;4.438;2022-09-03T20:03:59;21.90;62.00
23560;DHT22;11958;50.836;4.438;2022-09-03T20:06:48;21.50;63.30
23560;DHT22;11958;50.836;4.438;2022-09-03T20:09:37;21.50;64.00
23560;DHT22;11958;50.836;4.438;2022-09-03T20:12:24;21.50;64.20
23560;DHT22;11958;50.836;4.438;2022-09-03T20:14:52;21.80;62.80
23560;DHT22;11958;50.836;4.438;2022-09-03T20:20:33;21.50;64.00
23560;DHT22;11958;50.836;4.438;2022-09-03T20:23:12;21.20;65.80
23560;DHT22;11958;50.836;4.438;2022-09-03T20:25:50;21.40;65.20
23560;DHT22;11958;50.836;4.438;2022-09-03T20:34:18;21.50;64.50
23560;DHT22;11958;50.836;4.438;2022-09-03T20:42:24;21.50;64.70
23560;DHT22;11958;50.836;4.438;2022-09-03T20:45:03;21.50;65.50
23560;DHT22;11958;50.836;4.438;2022-09-03T20:47:43;21.30;65.70
23560;DHT22;11958;50.836;4.438;2022-09-03T20:54:04;20.90;68.00
23560;DHT22;11958;50.836;4.438;2022-09-03T20:59:44;20.90;67.80
23560;DHT22;11958;50.836;4.438;2022-09-03T21:18:45;20.10;72.30
23560;DHT22;11958;50.836;4.438;2022-09-03T21:24:24;20.00;72.70
23560;DHT22;11958;50.836;4.438;2022-09-03T21:26:44;20.00;72.90
23560;DHT22;11958;50.836;4.438;2022-09-03T21:29:36;20.10;72.60
23560;DHT22;11958;50.836;4.438;2022-09-03T21:32:16;20.10;72.80
23560;DHT22;11958;50.836;4.438;2022-09-03T21:34:54;20.10;72.80
23560;DHT22;11958;50.836;4.438;2022-09-03T21:37:23;20.20;72.70
23560;DHT22;11958;50.836;4.438;2022-09-03T21:39:55;20.10;73.30